sensor_id;sensor_type;location;lat;lon;timestamp;temperature;humidity
6964;DHT22;3522;50.856;7.278;2023-04-25T00:00:10;6.10;99.90
6964;DHT22;3522;50.856;7.278;2023-04-25T00:02:37;6.10;99.90
6964;DHT22;3522;50.856;7.278;2023-04-25T00:05:03;6.10;99.90
6964;DHT22;3522;50.856;7.278;2023-04-25T00:07:30;6.10;99.90
6964;DHT22;3522;50.856;7.278;2023-04-25T00:09:57;6.10;99.90
6964;DHT22;3522;50.856;7.278;2023-04-25T00:12:25;6.20;99.90
6964;DHT22;3522;50.856;7.278;2023-04-25T00:14:53;6.20;99.90
6964;DHT22;3522;50.856;7.278;2023-04-25T00:17:22;6.20;99.90
6964;DHT22;3522;50.856;7.278;2023-04-25T00:19:49;6.20;99.90
6964;DHT22;3522;50.856;7.278;2023-04-25T00:22:16;6.20;99.90
6964;DHT22;3522;50.856;7.278;2023-04-25T00:24:43;6.20;99.90
6964;DHT22;3522;50.856;7.278;2023-04-25T00:27:09;6.20;99.90
6964;DHT22;3522;50.856;7.278;2023-04-25T00:29:37;6.10;99.90
6964;DHT22;3522;50.856;7.278;2023-04-25T00:32:04;6.10;99.90
6964;DHT22;3522;50.856;7.278;2023-04-25T00:34:30;6.10;99.90
6964;DHT22;3522;50.856;7.278;2023-04-25T00:36:57;6.10;99.90
6964;DHT22;3522;50.856;7.278;2023-04-25T00:39:23;6.10;99.90
6964;DHT22;3522;50.856;7.278;2023-04-25T00:41:50;6.10;99.90
6964;DHT22;3522;50.856;7.278;2023-04-25T00:44:18;6.00;99.90
6964;DHT22;3522;50.856;7.278;2023-04-25T00:46:46;6.00;99.90
6964;DHT22;3522;50.856;7.278;2023-04-25T00:49:13;6.00;99.90
6964;DHT22;3522;50.856;7.278;2023-04-25T00:51:42;6.00;99.90
6964;DHT22;3522;50.856;7.278;2023-04-25T00:54:09;5.90;99.90
6964;DHT22;3522;50.856;7.278;2023-04-25T00:56:36;5.80;99.90
6964;DHT22;3522;50.856;7.278;2023-04-25T00:59:02;5.70;99.90
6964;DHT22;3522;50.856;7.278;2023-04-25T01:01:29;5.60;99.90
6964;DHT22;3522;50.856;7.278;2023-04-25T01:03:58;5.60;99.90
6964;DHT22;3522;50.856;7.278;2023-04-25T01:06:25;5.60;99.90
6964;DHT22;3522;50.856;7.278;2023-04-25T01:08:52;5.60;99.90
6964;DHT22;3522;50.856;7.278;2023-04-25T01:11:19;5.50;99.90
6964;DHT22;3522;50.856;7.278;2023-04-25T01:13:46;5.50;99.90
6964;DHT22;3522;50.856;7.278;2023-04-25T01:16:12;5.50;99.90
6964;DHT22;3522;50.856;7.278;2023-04-25T01:18:39;5.50;99.90
6964;DHT22;3522;50.856;7.278;2023-04-25T01:21:08;5.50;99.90
6964;DHT22;3522;50.856;7.278;2023-04-25T01:23:35;5.60;99.90
6964;DHT22;3522;50.856;7.278;2023-04-25T01:26:02;5.60;99.90
6964;DHT22;3522;50.856;7.278;2023-04-25T01:28:28;5.50;99.90
6964;DHT22;3522;50.856;7.278;2023-04-25T01:30:55;5.50;99.90
6964;DHT22;3522;50.856;7.278;2023-04-25T01:33:22;5.50;99.90
6964;DHT22;3522;50.856;7.278;2023-04-25T01:35:49;5.50;99.90
6964;DHT22;3522;50.856;7.278;2023-04-25T01:38:17;5.50;99.90
6964;DHT22;3522;50.856;7.278;2023-04-25T01:40:44;5.40;99.90
6964;DHT22;3522;50.856;7.278;2023-04-25T01:43:11;5.50;99.90
6964;DHT22;3522;50.856;7.278;2023-04-25T01:45:39;5.40;99.90
6964;DHT22;3522;50.856;7.278;2023-04-25T01:48:06;5.40;99.90
6964;DHT22;3522;50.856;7.278;2023-04-25T01:50:33;5.40;99.90
6964;DHT22;3522;50.856;7.278;2023-04-25T01:52:59;5.40;99.90
6964;DHT22;3522;50.856;7.278;2023-04-25T01:55:28;5.40;99.90
6964;DHT22;3522;50.856;7.278;2023-04-25T01:58:01;5.50;99.90
6964;DHT22;3522;50.856;7.278;2023-04-25T02:00:28;5.50;99.90
6964;DHT22;3522;50.856;7.278;2023-04-25T02:02:57;5.50;99.90
6964;DHT22;3522;50.856;7.278;2023-04-25T02:05:23;5.50;99.90
6964;DHT22;3522;50.856;7.278;2023-04-25T02:07:50;5.50;99.90
6964;DHT22;3522;50.856;7.278;2023-04-25T02:10:16;5.60;99.90
6964;DHT22;3522;50.856;7.278;2023-04-25T02:12:44;5.50;99.90
6964;DHT22;3522;50.856;7.278;2023-04-25T02:15:11;5.60;99.90
6964;DHT22;3522;50.856;7.278;2023-04-25T02:17:37;5.60;99.90
6964;DHT22;3522;50.856;7.278;2023-04-25T02:20:05;5.60;99.90
6964;DHT22;3522;50.856;7.278;2023-04-25T02:22:31;5.60;99.90
6964;DHT22;3522;50.856;7.278;2023-04-25T02:24:59;5.60;99.90
6964;DHT22;3522;50.856;7.278;2023-04-25T02:27:25;5.60;99.90
6964;DHT22;3522;50.856;7.278;2023-04-25T02:29:53;5.60;99.90
6964;DHT22;3522;50.856;7.278;2023-04-25T02:32:20;5.60;99.90
6964;DHT22;3522;50.856;7.278;2023-04-25T02:34:46;5.60;99.90
6964;DHT22;3522;50.856;7.278;2023-04-25T02:37:13;5.60;99.90
6964;DHT22;3522;50.856;7.278;2023-04-25T02:39:40;5.50;99.90
6964;DHT22;3522;50.856;7.278;2023-04-25T02:42:06;5.50;99.90
6964;DHT22;3522;50.856;7.278;2023-04-25T02:44:33;5.40;99.90
6964;DHT22;3522;50.856;7.278;2023-04-25T02:47:01;5.40;99.90
6964;DHT22;3522;50.856;7.278;2023-04-25T02:49:27;5.30;99.90
6964;DHT22;3522;50.856;7.278;2023-04-25T02:51:54;5.30;99.90
6964;DHT22;3522;50.856;7.278;2023-04-25T02:54:20;5.30;99.90
6964;DHT22;3522;50.856;7.278;2023-04-25T02:56:47;5.20;99.90
6964;DHT22;3522;50.856;7.278;2023-04-25T02:59:13;5.20;99.90
6964;DHT22;3522;50.856;7.278;2023-04-25T03:01:40;5.20;99.90
6964;DHT22;3522;50.856;7.278;2023-04-25T03:04:08;5.10;99.90
6964;DHT22;3522;50.856;7.278;2023-04-25T03:06:34;5.20;99.90
6964;DHT22;3522;50.856;7.278;2023-04-25T03:09:01;5.20;99.90
6964;DHT22;3522;50.856;7.278;2023-04-25T03:11:28;5.10;99.90
6964;DHT22;3522;50.856;7.278;2023-04-25T03:13:55;5.10;99.90
6964;DHT22;3522;50.856;7.278;2023-04-25T03:16:22;5.10;99.90
6964;DHT22;3522;50.856;7.278;2023-04-25T03:18:48;5.20;99.90
6964;DHT22;3522;50.856;7.278;2023-04-25T03:21:17;5.20;99.90
6964;DHT22;3522;50.856;7.278;2023-04-25T03:23:44;5.20;99.90
6964;DHT22;3522;50.856;7.278;2023-04-25T03:26:10;5.20;99.90
6964;DHT22;3522;50.856;7.278;2023-04-25T03:28:37;5.20;99.90
6964;DHT22;3522;50.856;7.278;2023-04-25T03:31:05;5.20;99.90
6964;DHT22;3522;50.856;7.278;2023-04-25T03:33:31;5.20;99.90
6964;DHT22;3522;50.856;7.278;2023-04-25T03:35:58;5.20;99.90
6964;DHT22;3522;50.856;7.278;2023-04-25T03:38:26;5.20;99.90
6964;DHT22;3522;50.856;7.278;2023-04-25T03:40:53;5.30;99.90
6964;DHT22;3522;50.856;7.278;2023-04-25T03:43:21;5.20;99.90
6964;DHT22;3522;50.856;7.278;2023-04-25T03:45:48;5.20;99.90
6964;DHT22;3522;50.856;7.278;2023-04-25T03:48:14;5.30;99.90
6964;DHT22;3522;50.856;7.278;2023-04-25T03:50:41;5.30;99.90
6964;DHT22;3522;50.856;7.278;2023-04-25T03:53:07;5.30;99.90
6964;DHT22;3522;50.856;7.278;2023-04-25T03:55:35;5.30;99.90
6964;DHT22;3522;50.856;7.278;2023-04-25T03:58:02;5.30;99.90
6964;DHT22;3522;50.856;7.278;2023-04-25T04:00:28;5.30;99.90
6964;DHT22;3522;50.856;7.278;2023-04-25T04:02:55;5.30;99.90
6964;DHT22;3522;50.856;7.278;2023-04-25T04:05:22;5.30;99.90
6964;DHT22;3522;50.856;7.278;2023-04-25T04:07:48;5.30;99.90
6964;DHT22;3522;50.856;7.278;2023-04-25T04:10:15;5.30;99.90
6964;DHT22;3522;50.856;7.278;2023-04-25T04:12:43;5.30;99.90
6964;DHT22;3522;50.856;7.278;2023-04-25T04:15:10;5.40;99.90
6964;DHT22;3522;50.856;7.278;2023-04-25T04:17:37;5.40;99.90
6964;DHT22;3522;50.856;7.278;2023-04-25T04:20:04;5.40;99.90
6964;DHT22;3522;50.856;7.278;2023-04-25T04:22:31;5.40;99.90
6964;DHT22;3522;50.856;7.278;2023-04-25T04:24:57;5.40;99.90
6964;DHT22;3522;50.856;7.278;2023-04-25T04:27:24;5.40;99.90
6964;DHT22;3522;50.856;7.278;2023-04-25T04:29:52;5.50;99.90
6964;DHT22;3522;50.856;7.278;2023-04-25T04:32:18;5.50;99.90
6964;DHT22;3522;50.856;7.278;2023-04-25T04:34:45;5.50;99.90
6964;DHT22;3522;50.856;7.278;2023-04-25T04:37:12;5.50;99.90
6964;DHT22;3522;50.856;7.278;2023-04-25T04:39:39;5.50;99.90
6964;DHT22;3522;50.856;7.278;2023-04-25T04:42:05;5.50;99.90
6964;DHT22;3522;50.856;7.278;2023-04-25T04:44:32;5.50;99.90
6964;DHT22;3522;50.856;7.278;2023-04-25T04:47:00;5.50;99.90
6964;DHT22;3522;50.856;7.278;2023-04-25T04:49:28;5.50;99.90
6964;DHT22;3522;50.856;7.278;2023-04-25T04:51:55;5.50;99.90
6964;DHT22;3522;50.856;7.278;2023-04-25T04:54:22;5.50;99.90
6964;DHT22;3522;50.856;7.278;2023-04-25T04:56:48;5.50;99.90
6964;DHT22;3522;50.856;7.278;2023-04-25T04:59:15;5.60;99.90
6964;DHT22;3522;50.856;7.278;2023-04-25T05:01:41;5.60;99.90
6964;DHT22;3522;50.856;7.278;2023-04-25T05:04:09;5.70;99.90
6964;DHT22;3522;50.856;7.278;2023-04-25T05:06:36;5.70;99.90
6964;DHT22;3522;50.856;7.278;2023-04-25T05:09:02;5.80;99.90
6964;DHT22;3522;50.856;7.278;2023-04-25T05:11:29;5.80;99.90
6964;DHT22;3522;50.856;7.278;2023-04-25T05:13:56;5.90;99.90
6964;DHT22;3522;50.856;7.278;2023-04-25T05:16:22;5.90;99.90
6964;DHT22;3522;50.856;7.278;2023-04-25T05:18:49;5.90;99.90
6964;DHT22;3522;50.856;7.278;2023-04-25T05:21:17;5.90;99.90
6964;DHT22;3522;50.856;7.278;2023-04-25T05:23:43;6.00;99.90
6964;DHT22;3522;50.856;7.278;2023-04-25T05:26:10;6.00;99.90
6964;DHT22;3522;50.856;7.278;2023-04-25T05:28:39;6.00;99.90
6964;DHT22;3522;50.856;7.278;2023-04-25T05:31:05;6.00;99.90
6964;DHT22;3522;50.856;7.278;2023-04-25T05:33:32;6.00;99.90
6964;DHT22;3522;50.856;7.278;2023-04-25T05:35:58;6.10;99.90
6964;DHT22;3522;50.856;7.278;2023-04-25T05:38:27;6.10;99.90
6964;DHT22;3522;50.856;7.278;2023-04-25T05:40:53;6.20;99.90
6964;DHT22;3522;50.856;7.278;2023-04-25T05:43:20;6.20;99.90
6964;DHT22;3522;50.856;7.278;2023-04-25T05:45:46;6.30;99.90
6964;DHT22;3522;50.856;7.278;2023-04-25T05:48:13;6.40;99.90
6964;DHT22;3522;50.856;7.278;2023-04-25T05:50:39;6.40;99.90
6964;DHT22;3522;50.856;7.278;2023-04-25T05:53:06;6.40;99.90
6964;DHT22;3522;50.856;7.278;2023-04-25T05:55:34;6.40;99.90
6964;DHT22;3522;50.856;7.278;2023-04-25T05:58:00;6.40;99.90
6964;DHT22;3522;50.856;7.278;2023-04-25T06:00:27;6.40;99.90
6964;DHT22;3522;50.856;7.278;2023-04-25T06:02:54;6.50;99.90
6964;DHT22;3522;50.856;7.278;2023-04-25T06:05:21;6.60;99.90
6964;DHT22;3522;50.856;7.278;2023-04-25T06:07:47;6.70;99.90
6964;DHT22;3522;50.856;7.278;2023-04-25T06:10:14;6.80;99.90
6964;DHT22;3522;50.856;7.278;2023-04-25T06:12:42;6.90;99.90
6964;DHT22;3522;50.856;7.278;2023-04-25T06:15:08;6.90;99.90
6964;DHT22;3522;50.856;7.278;2023-04-25T06:17:35;6.90;99.90
6964;DHT22;3522;50.856;7.278;2023-04-25T06:20:02;6.90;99.90
6964;DHT22;3522;50.856;7.278;2023-04-25T06:22:29;6.80;99.90
6964;DHT22;3522;50.856;7.278;2023-04-25T06:24:55;6.90;99.90
6964;DHT22;3522;50.856;7.278;2023-04-25T06:27:24;6.90;99.90
6964;DHT22;3522;50.856;7.278;2023-04-25T06:29:52;6.90;99.90
6964;DHT22;3522;50.856;7.278;2023-04-25T06:32:18;6.90;99.90
6964;DHT22;3522;50.856;7.278;2023-04-25T06:34:45;7.00;99.90
6964;DHT22;3522;50.856;7.278;2023-04-25T06:37:11;7.00;99.90
6964;DHT22;3522;50.856;7.278;2023-04-25T06:39:38;7.10;99.90
6964;DHT22;3522;50.856;7.278;2023-04-25T06:42:04;7.10;99.90
6964;DHT22;3522;50.856;7.278;2023-04-25T06:44:31;7.20;99.90
6964;DHT22;3522;50.856;7.278;2023-04-25T06:46:59;7.20;99.90
6964;DHT22;3522;50.856;7.278;2023-04-25T06:49:25;7.30;99.90
6964;DHT22;3522;50.856;7.278;2023-04-25T06:51:52;7.50;99.90
6964;DHT22;3522;50.856;7.278;2023-04-25T06:54:18;7.60;99.90
6964;DHT22;3522;50.856;7.278;2023-04-25T06:56:45;7.80;99.90
6964;DHT22;3522;50.856;7.278;2023-04-25T06:59:12;7.90;99.90
6964;DHT22;3522;50.856;7.278;2023-04-25T07:01:38;7.90;99.90
6964;DHT22;3522;50.856;7.278;2023-04-25T07:04:06;7.90;99.90
6964;DHT22;3522;50.856;7.278;2023-04-25T07:06:33;7.80;99.90
6964;DHT22;3522;50.856;7.278;2023-04-25T07:09:03;8.00;99.90
6964;DHT22;3522;50.856;7.278;2023-04-25T07:11:29;7.90;99.90
6964;DHT22;3522;50.856;7.278;2023-04-25T07:13:56;7.80;99.90
6964;DHT22;3522;50.856;7.278;2023-04-25T07:16:22;7.80;99.90
6964;DHT22;3522;50.856;7.278;2023-04-25T07:18:49;8.00;99.90
6964;DHT22;3522;50.856;7.278;2023-04-25T07:21:17;8.30;99.90
6964;DHT22;3522;50.856;7.278;2023-04-25T07:23:44;8.60;99.90
6964;DHT22;3522;50.856;7.278;2023-04-25T07:26:10;8.80;99.90
6964;DHT22;3522;50.856;7.278;2023-04-25T07:28:37;9.10;99.90
6964;DHT22;3522;50.856;7.278;2023-04-25T07:31:03;9.10;99.90
6964;DHT22;3522;50.856;7.278;2023-04-25T07:33:30;9.20;99.90
6964;DHT22;3522;50.856;7.278;2023-04-25T07:35:57;9.10;99.90
6964;DHT22;3522;50.856;7.278;2023-04-25T07:38:24;9.30;99.90
6964;DHT22;3522;50.856;7.278;2023-04-25T07:40:51;9.50;99.90
6964;DHT22;3522;50.856;7.278;2023-04-25T07:43:18;9.80;99.90
6964;DHT22;3522;50.856;7.278;2023-04-25T07:45:45;9.70;99.90
6964;DHT22;3522;50.856;7.278;2023-04-25T07:48:11;9.50;99.90
6964;DHT22;3522;50.856;7.278;2023-04-25T07:50:38;9.20;99.90
6964;DHT22;3522;50.856;7.278;2023-04-25T07:53:04;9.10;99.90
6964;DHT22;3522;50.856;7.278;2023-04-25T07:55:32;9.00;99.90
6964;DHT22;3522;50.856;7.278;2023-04-25T07:57:59;8.90;99.90
6964;DHT22;3522;50.856;7.278;2023-04-25T08:00:26;8.80;99.90
6964;DHT22;3522;50.856;7.278;2023-04-25T08:02:52;8.80;99.90
6964;DHT22;3522;50.856;7.278;2023-04-25T08:05:19;8.60;99.90
6964;DHT22;3522;50.856;7.278;2023-04-25T08:07:46;8.40;99.90
6964;DHT22;3522;50.856;7.278;2023-04-25T08:10:13;8.30;99.90
6964;DHT22;3522;50.856;7.278;2023-04-25T08:12:41;8.20;99.90
6964;DHT22;3522;50.856;7.278;2023-04-25T08:15:08;8.20;99.90
6964;DHT22;3522;50.856;7.278;2023-04-25T08:17:35;8.30;99.90
6964;DHT22;3522;50.856;7.278;2023-04-25T08:20:01;8.40;99.90
6964;DHT22;3522;50.856;7.278;2023-04-25T08:22:30;8.40;99.90
6964;DHT22;3522;50.856;7.278;2023-04-25T08:24:57;8.50;99.90
6964;DHT22;3522;50.856;7.278;2023-04-25T08:27:24;8.60;99.90
6964;DHT22;3522;50.856;7.278;2023-04-25T08:29:52;8.60;99.90
6964;DHT22;3522;50.856;7.278;2023-04-25T08:32:18;8.60;99.90
6964;DHT22;3522;50.856;7.278;2023-04-25T08:34:47;8.60;99.90
6964;DHT22;3522;50.856;7.278;2023-04-25T08:37:14;8.60;99.90
6964;DHT22;3522;50.856;7.278;2023-04-25T08:39:40;8.70;99.90
6964;DHT22;3522;50.856;7.278;2023-04-25T08:42:07;8.80;99.90
6964;DHT22;3522;50.856;7.278;2023-04-25T08:44:34;9.10;99.90
6964;DHT22;3522;50.856;7.278;2023-04-25T08:47:02;9.50;99.90
6964;DHT22;3522;50.856;7.278;2023-04-25T08:49:29;9.60;99.90
6964;DHT22;3522;50.856;7.278;2023-04-25T08:51:57;9.70;99.90
6964;DHT22;3522;50.856;7.278;2023-04-25T08:54:25;9.60;99.90
6964;DHT22;3522;50.856;7.278;2023-04-25T08:56:54;9.70;99.90
6964;DHT22;3522;50.856;7.278;2023-04-25T08:59:21;9.90;99.90
6964;DHT22;3522;50.856;7.278;2023-04-25T09:01:48;9.90;99.90
6964;DHT22;3522;50.856;7.278;2023-04-25T09:04:16;9.70;99.90
6964;DHT22;3522;50.856;7.278;2023-04-25T09:06:43;9.60;99.90
6964;DHT22;3522;50.856;7.278;2023-04-25T09:09:10;9.30;99.90
6964;DHT22;3522;50.856;7.278;2023-04-25T09:11:37;9.00;99.90
6964;DHT22;3522;50.856;7.278;2023-04-25T09:14:10;8.70;99.90
6964;DHT22;3522;50.856;7.278;2023-04-25T09:16:42;8.60;99.90
6964;DHT22;3522;50.856;7.278;2023-04-25T09:19:24;8.40;99.90
6964;DHT22;3522;50.856;7.278;2023-04-25T09:21:51;8.20;99.90
6964;DHT22;3522;50.856;7.278;2023-04-25T09:24:20;8.10;99.90
6964;DHT22;3522;50.856;7.278;2023-04-25T09:26:55;7.90;99.90
6964;DHT22;3522;50.856;7.278;2023-04-25T09:29:26;7.80;99.90
6964;DHT22;3522;50.856;7.278;2023-04-25T09:31:57;7.90;99.90
6964;DHT22;3522;50.856;7.278;2023-04-25T09:34:39;7.80;99.90
6964;DHT22;3522;50.856;7.278;2023-04-25T09:37:07;7.90;99.90
6964;DHT22;3522;50.856;7.278;2023-04-25T09:39:34;8.00;99.90
6964;DHT22;3522;50.856;7.278;2023-04-25T09:42:01;8.00;99.90
6964;DHT22;3522;50.856;7.278;2023-04-25T09:44:28;8.00;99.90
6964;DHT22;3522;50.856;7.278;2023-04-25T09:46:55;8.00;99.90
6964;DHT22;3522;50.856;7.278;2023-04-25T09:49:22;8.10;99.90
6964;DHT22;3522;50.856;7.278;2023-04-25T09:51:56;8.20;99.90
6964;DHT22;3522;50.856;7.278;2023-04-25T09:54:23;8.30;99.90
6964;DHT22;3522;50.856;7.278;2023-04-25T09:56:51;8.40;99.90
6964;DHT22;3522;50.856;7.278;2023-04-25T09:59:18;8.50;99.90
6964;DHT22;3522;50.856;7.278;2023-04-25T10:01:46;8.80;99.90
6964;DHT22;3522;50.856;7.278;2023-04-25T10:04:13;9.10;99.90
6964;DHT22;3522;50.856;7.278;2023-04-25T10:06:42;9.50;99.90
6964;DHT22;3522;50.856;7.278;2023-04-25T10:09:10;9.90;99.90
6964;DHT22;3522;50.856;7.278;2023-04-25T10:11:37;10.10;99.90
6964;DHT22;3522;50.856;7.278;2023-04-25T10:14:04;10.20;99.90
6964;DHT22;3522;50.856;7.278;2023-04-25T10:16:31;10.20;99.90
6964;DHT22;3522;50.856;7.278;2023-04-25T10:18:58;10.20;99.90
6964;DHT22;3522;50.856;7.278;2023-04-25T10:21:25;10.10;99.90
6964;DHT22;3522;50.856;7.278;2023-04-25T10:23:53;10.00;99.90
6964;DHT22;3522;50.856;7.278;2023-04-25T10:26:22;10.10;99.90
6964;DHT22;3522;50.856;7.278;2023-04-25T10:28:55;10.20;99.90
6964;DHT22;3522;50.856;7.278;2023-04-25T10:31:22;10.10;99.90
6964;DHT22;3522;50.856;7.278;2023-04-25T10:33:48;9.90;99.90
6964;DHT22;3522;50.856;7.278;2023-04-25T10:36:17;9.80;99.90
6964;DHT22;3522;50.856;7.278;2023-04-25T10:38:44;9.50;99.90
6964;DHT22;3522;50.856;7.278;2023-04-25T10:41:11;9.40;99.90
6964;DHT22;3522;50.856;7.278;2023-04-25T10:43:40;9.50;99.90
6964;DHT22;3522;50.856;7.278;2023-04-25T10:46:14;9.50;99.90
6964;DHT22;3522;50.856;7.278;2023-04-25T10:48:47;9.40;99.90
6964;DHT22;3522;50.856;7.278;2023-04-25T10:51:18;9.40;99.90
6964;DHT22;3522;50.856;7.278;2023-04-25T10:53:45;9.30;99.90
6964;DHT22;3522;50.856;7.278;2023-04-25T10:56:16;9.30;99.90
6964;DHT22;3522;50.856;7.278;2023-04-25T10:58:45;9.30;99.90
6964;DHT22;3522;50.856;7.278;2023-04-25T11:01:12;9.50;99.90
6964;DHT22;3522;50.856;7.278;2023-04-25T11:03:39;9.60;99.90
6964;DHT22;3522;50.856;7.278;2023-04-25T11:06:06;9.80;99.90
6964;DHT22;3522;50.856;7.278;2023-04-25T11:08:39;9.90;99.90
6964;DHT22;3522;50.856;7.278;2023-04-25T11:11:11;10.10;99.90
6964;DHT22;3522;50.856;7.278;2023-04-25T11:13:38;10.60;99.90
6964;DHT22;3522;50.856;7.278;2023-04-25T11:16:08;11.30;99.90
6964;DHT22;3522;50.856;7.278;2023-04-25T11:18:34;11.80;99.90
6964;DHT22;3522;50.856;7.278;2023-04-25T11:21:02;11.50;99.90
6964;DHT22;3522;50.856;7.278;2023-04-25T11:23:29;11.10;99.90
6964;DHT22;3522;50.856;7.278;2023-04-25T11:25:56;10.60;99.90
6964;DHT22;3522;50.856;7.278;2023-04-25T11:28:22;10.30;99.90
6964;DHT22;3522;50.856;7.278;2023-04-25T11:30:49;10.00;99.90
6964;DHT22;3522;50.856;7.278;2023-04-25T11:33:17;9.80;99.90
6964;DHT22;3522;50.856;7.278;2023-04-25T11:35:44;9.60;99.90
6964;DHT22;3522;50.856;7.278;2023-04-25T11:38:11;9.30;99.90
6964;DHT22;3522;50.856;7.278;2023-04-25T11:40:37;9.10;99.90
6964;DHT22;3522;50.856;7.278;2023-04-25T11:43:04;9.00;99.90
6964;DHT22;3522;50.856;7.278;2023-04-25T11:45:31;8.80;99.90
6964;DHT22;3522;50.856;7.278;2023-04-25T11:47:57;8.70;99.90
6964;DHT22;3522;50.856;7.278;2023-04-25T11:50:25;8.80;99.90
6964;DHT22;3522;50.856;7.278;2023-04-25T11:52:55;8.90;99.90
6964;DHT22;3522;50.856;7.278;2023-04-25T11:55:22;9.10;99.90
6964;DHT22;3522;50.856;7.278;2023-04-25T11:57:49;9.30;99.90
6964;DHT22;3522;50.856;7.278;2023-04-25T12:00:17;9.50;99.90
6964;DHT22;3522;50.856;7.278;2023-04-25T12:02:46;9.90;99.90
6964;DHT22;3522;50.856;7.278;2023-04-25T12:05:13;10.30;99.90
6964;DHT22;3522;50.856;7.278;2023-04-25T12:07:41;10.80;99.90
6964;DHT22;3522;50.856;7.278;2023-04-25T12:10:08;11.20;99.90
6964;DHT22;3522;50.856;7.278;2023-04-25T12:12:36;11.20;99.90
6964;DHT22;3522;50.856;7.278;2023-04-25T12:15:09;11.10;99.90
6964;DHT22;3522;50.856;7.278;2023-04-25T12:17:36;11.10;99.90
6964;DHT22;3522;50.856;7.278;2023-04-25T12:20:05;11.00;99.90
6964;DHT22;3522;50.856;7.278;2023-04-25T12:22:32;10.90;99.90
6964;DHT22;3522;50.856;7.278;2023-04-25T12:25:00;10.90;99.90
6964;DHT22;3522;50.856;7.278;2023-04-25T12:27:30;11.20;99.90
6964;DHT22;3522;50.856;7.278;2023-04-25T12:29:57;11.90;99.90
6964;DHT22;3522;50.856;7.278;2023-04-25T12:32:23;12.50;99.90
6964;DHT22;3522;50.856;7.278;2023-04-25T12:34:50;12.90;99.90
6964;DHT22;3522;50.856;7.278;2023-04-25T12:37:17;13.10;99.90
6964;DHT22;3522;50.856;7.278;2023-04-25T12:39:43;13.10;99.90
6964;DHT22;3522;50.856;7.278;2023-04-25T12:42:11;12.60;99.90
6964;DHT22;3522;50.856;7.278;2023-04-25T12:44:38;12.00;99.90
6964;DHT22;3522;50.856;7.278;2023-04-25T12:47:05;11.40;99.90
6964;DHT22;3522;50.856;7.278;2023-04-25T12:49:32;11.10;99.90
6964;DHT22;3522;50.856;7.278;2023-04-25T12:51:58;11.30;99.90
6964;DHT22;3522;50.856;7.278;2023-04-25T12:54:25;11.70;99.90
6964;DHT22;3522;50.856;7.278;2023-04-25T12:56:51;12.20;99.90
6964;DHT22;3522;50.856;7.278;2023-04-25T12:59:19;12.80;99.90
6964;DHT22;3522;50.856;7.278;2023-04-25T13:01:46;12.60;99.00
6964;DHT22;3522;50.856;7.278;2023-04-25T13:04:13;12.40;99.90
6964;DHT22;3522;50.856;7.278;2023-04-25T13:06:39;12.10;99.20
6964;DHT22;3522;50.856;7.278;2023-04-25T13:09:06;11.70;99.90
6964;DHT22;3522;50.856;7.278;2023-04-25T13:11:32;11.50;99.90
6964;DHT22;3522;50.856;7.278;2023-04-25T13:14:00;11.90;99.40
6964;DHT22;3522;50.856;7.278;2023-04-25T13:16:28;12.30;99.90
6964;DHT22;3522;50.856;7.278;2023-04-25T13:18:55;12.60;99.90
6964;DHT22;3522;50.856;7.278;2023-04-25T13:21:22;12.60;99.90
6964;DHT22;3522;50.856;7.278;2023-04-25T13:23:48;12.30;99.90
6964;DHT22;3522;50.856;7.278;2023-04-25T13:26:15;11.90;99.20
6964;DHT22;3522;50.856;7.278;2023-04-25T13:28:42;11.60;99.90
6964;DHT22;3522;50.856;7.278;2023-04-25T13:31:08;11.40;99.90
6964;DHT22;3522;50.856;7.278;2023-04-25T13:33:36;11.10;99.90
6964;DHT22;3522;50.856;7.278;2023-04-25T13:36:03;11.00;99.90
6964;DHT22;3522;50.856;7.278;2023-04-25T13:38:30;11.00;99.90
6964;DHT22;3522;50.856;7.278;2023-04-25T13:40:57;11.40;99.90
6964;DHT22;3522;50.856;7.278;2023-04-25T13:43:23;11.60;99.90
6964;DHT22;3522;50.856;7.278;2023-04-25T13:45:50;11.70;99.90
6964;DHT22;3522;50.856;7.278;2023-04-25T13:48:17;11.50;99.90
6964;DHT22;3522;50.856;7.278;2023-04-25T13:50:45;11.40;99.90
6964;DHT22;3522;50.856;7.278;2023-04-25T13:53:12;11.10;98.00
6964;DHT22;3522;50.856;7.278;2023-04-25T13:55:39;11.10;99.90
6964;DHT22;3522;50.856;7.278;2023-04-25T13:58:05;11.30;99.90
6964;DHT22;3522;50.856;7.278;2023-04-25T14:00:35;11.50;99.90
6964;DHT22;3522;50.856;7.278;2023-04-25T14:03:03;11.60;99.50
6964;DHT22;3522;50.856;7.278;2023-04-25T14:05:32;11.50;97.80
6964;DHT22;3522;50.856;7.278;2023-04-25T14:08:01;11.50;99.60
6964;DHT22;3522;50.856;7.278;2023-04-25T14:10:28;11.70;99.60
6964;DHT22;3522;50.856;7.278;2023-04-25T14:12:54;11.80;99.90
6964;DHT22;3522;50.856;7.278;2023-04-25T14:15:21;11.90;99.80
6964;DHT22;3522;50.856;7.278;2023-04-25T14:17:47;12.20;99.90
6964;DHT22;3522;50.856;7.278;2023-04-25T14:20:14;12.50;99.90
6964;DHT22;3522;50.856;7.278;2023-04-25T14:22:41;12.50;99.90
6964;DHT22;3522;50.856;7.278;2023-04-25T14:25:10;12.10;99.90
6964;DHT22;3522;50.856;7.278;2023-04-25T14:27:37;11.70;99.90
6964;DHT22;3522;50.856;7.278;2023-04-25T14:30:04;11.70;99.90
6964;DHT22;3522;50.856;7.278;2023-04-25T14:32:31;11.70;99.90
6964;DHT22;3522;50.856;7.278;2023-04-25T14:34:58;11.40;99.90
6964;DHT22;3522;50.856;7.278;2023-04-25T14:37:25;11.10;99.90
6964;DHT22;3522;50.856;7.278;2023-04-25T14:39:51;11.00;99.90
6964;DHT22;3522;50.856;7.278;2023-04-25T14:42:19;11.10;99.90
6964;DHT22;3522;50.856;7.278;2023-04-25T14:44:46;11.40;99.90
6964;DHT22;3522;50.856;7.278;2023-04-25T14:47:12;11.80;99.90
6964;DHT22;3522;50.856;7.278;2023-04-25T14:49:39;12.30;99.90
6964;DHT22;3522;50.856;7.278;2023-04-25T14:52:05;12.50;99.90
6964;DHT22;3522;50.856;7.278;2023-04-25T14:54:32;12.60;99.90
6964;DHT22;3522;50.856;7.278;2023-04-25T14:56:58;12.60;99.90
6964;DHT22;3522;50.856;7.278;2023-04-25T14:59:27;12.60;99.90
6964;DHT22;3522;50.856;7.278;2023-04-25T15:01:53;12.70;99.50
6964;DHT22;3522;50.856;7.278;2023-04-25T15:04:20;12.70;99.90
6964;DHT22;3522;50.856;7.278;2023-04-25T15:06:46;12.20;99.90
6964;DHT22;3522;50.856;7.278;2023-04-25T15:09:13;11.70;99.90
6964;DHT22;3522;50.856;7.278;2023-04-25T15:11:41;11.20;99.90
6964;DHT22;3522;50.856;7.278;2023-04-25T15:14:08;11.20;99.90
6964;DHT22;3522;50.856;7.278;2023-04-25T15:16:36;11.20;99.90
6964;DHT22;3522;50.856;7.278;2023-04-25T15:19:03;11.00;99.90
6964;DHT22;3522;50.856;7.278;2023-04-25T15:21:30;10.70;99.90
6964;DHT22;3522;50.856;7.278;2023-04-25T15:23:56;10.50;99.20
6964;DHT22;3522;50.856;7.278;2023-04-25T15:26:23;10.60;96.90
6964;DHT22;3522;50.856;7.278;2023-04-25T15:28:50;10.50;98.30
6964;DHT22;3522;50.856;7.278;2023-04-25T15:31:17;10.20;98.80
6964;DHT22;3522;50.856;7.278;2023-04-25T15:33:45;10.00;99.90
6964;DHT22;3522;50.856;7.278;2023-04-25T15:36:12;9.90;99.90
6964;DHT22;3522;50.856;7.278;2023-04-25T15:38:41;9.90;99.90
6964;DHT22;3522;50.856;7.278;2023-04-25T15:41:08;10.30;99.90
6964;DHT22;3522;50.856;7.278;2023-04-25T15:43:34;10.40;99.90
6964;DHT22;3522;50.856;7.278;2023-04-25T15:46:03;10.70;99.90
6964;DHT22;3522;50.856;7.278;2023-04-25T15:48:29;11.10;99.90
6964;DHT22;3522;50.856;7.278;2023-04-25T15:50:58;11.30;99.90
6964;DHT22;3522;50.856;7.278;2023-04-25T15:53:25;11.40;99.90
6964;DHT22;3522;50.856;7.278;2023-04-25T15:55:51;11.40;99.90
6964;DHT22;3522;50.856;7.278;2023-04-25T15:58:18;11.30;99.90
6964;DHT22;3522;50.856;7.278;2023-04-25T16:00:44;11.30;99.90
6964;DHT22;3522;50.856;7.278;2023-04-25T16:03:13;11.20;99.90
6964;DHT22;3522;50.856;7.278;2023-04-25T16:05:39;11.10;99.90
6964;DHT22;3522;50.856;7.278;2023-04-25T16:08:07;11.00;99.90
6964;DHT22;3522;50.856;7.278;2023-04-25T16:10:34;11.00;99.90